Time;durP1;ratioP1;P1;durP2;ratioP2;P2;SDS_P1;SDS_P2;PMS_P1;PMS_P2;Temp;Humidity;BMP_temperature;BMP_pressure;BME280_temperature;BME280_humidity;BME280_pressure;Samples;Min_cycle;Max_cycle;Signal;HPM_P1;HPM_P2
2023/03/21 00:00:42;;;;;;;;;;;;;;;;;;5090179;28;19911;-67
2023/03/21 00:03:08;;;;;;;;;;;;;;;;;;5089761;28;20249;-68
2023/03/21 00:05:33;;;;;;;;;;;;;;;;;;5088917;28;19908;-69
2023/03/21 00:08:00;;;;;;;;;;;;;;;;;;5089354;28;20437;-67
2023/03/21 00:10:26;;;;;;;;;;;;;;;;;;5093421;28;20296;-68
2023/03/21 00:12:57;;;;;;;;;;;;;;;;;;5094458;28;19911;-70
2023/03/21 00:15:25;;;;;;;;;;;;;;;;;;5092642;28;20037;-68
2023/03/21 00:17:50;;;;;;;;;;;;;;;;;;5072394;28;20006;-69
2023/03/21 00:20:16;;;;;;;;;;;;;;;;;;5089497;28;20007;-68
2023/03/21 00:22:42;;;;;;;;;;;;;;;;;;5089926;28;19904;-70
2023/03/21 00:25:09;;;;;;;;;;;;;;;;;;5070787;28;20346;-71
2023/03/21 00:27:35;;;;;;;;;;;;;;;;;;5071420;28;19908;-68
2023/03/21 00:30:01;;;;;;;;;;;;;;;;;;5089470;28;20436;-68
2023/03/21 00:32:27;;;;;;;;;;;;;;;;;;5089545;28;19912;-67
2023/03/21 00:34:52;;;;;;;;;;;;;;;;;;5089380;28;19919;-67
2023/03/21 00:37:18;;;;;;;;;;;;;;;;;;5090000;28;19940;-67
2023/03/21 00:39:47;;;;;;;;;;;;;;;;;;5092315;22;19958;-59
2023/03/21 00:42:13;;;;;;;;;;;;;;;;;;5072134;28;19904;-58
2023/03/21 00:44:40;;;;;;;;;;;;;;;;;;5072003;28;20374;-58
2023/03/21 00:47:06;;;;;;;;;;;;;;;;;;5072135;28;19904;-53
2023/03/21 00:49:37;;;;;;;;;;;;;;;;;;5072238;28;19915;-55
2023/03/21 00:52:03;;;;;;;;;;;;;;;;;;5072001;28;19910;-58
2023/03/21 00:54:29;;;;;;;;;;;;;;;;;;5053850;28;19904;-54
2023/03/21 00:56:55;;;;;;;;;;;;;;;;;;5072529;28;19942;-53
2023/03/21 00:59:21;;;;;;;;;;;;;;;;;;5072553;28;19905;-54
2023/03/21 01:01:47;;;;;;;;;;;;;;;;;;5072459;28;19958;-57
2023/03/21 01:04:13;;;;;;;;;;;;;;;;;;5072430;28;19939;-58
2023/03/21 01:06:39;;;;;;;;;;;;;;;;;;5072550;28;19995;-54
2023/03/21 01:09:05;;;;;;;;;;;;;;;;;;5072479;28;19948;-57
2023/03/21 01:11:31;;;;;;;;;;;;;;;;;;5072563;28;20011;-60
2023/03/21 01:13:56;;;;;;;;;;;;;;;;;;5054357;28;19911;-56
2023/03/21 01:16:22;;;;;;;;;;;;;;;;;;5072349;28;19908;-57
2023/03/21 01:18:48;;;;;;;;;;;;;;;;;;5054253;28;19905;-60
2023/03/21 01:21:14;;;;;;;;;;;;;;;;;;5072435;28;19904;-59
2023/03/21 01:23:40;;;;;;;;;;;;;;;;;;5072167;28;19997;-58
2023/03/21 01:26:06;;;;;;;;;;;;;;;;;;5072274;28;20043;-54
2023/03/21 01:28:32;;;;;;;;;;;;;;;;;;5054304;28;19904;-58
2023/03/21 01:30:58;;;;;;;;;;;;;;;;;;5072282;28;19904;-55
2023/03/21 01:33:24;;;;;;;;;;;;;;;;;;5053781;28;19927;-60
2023/03/21 01:35:50;;;;;;;;;;;;;;;;;;5054131;28;19915;-59
2023/03/21 01:38:16;;;;;;;;;;;;;;;;;;5071259;28;19920;-59
2023/03/21 01:40:42;;;;;;;;;;;;;;;;;;5054271;28;19911;-58
2023/03/21 01:43:07;;;;;;;;;;;;;;;;;;5053633;28;20411;-60
2023/03/21 01:45:33;;;;;;;;;;;;;;;;;;5072095;28;19904;-61
2023/03/21 01:47:59;;;;;;;;;;;;;;;;;;5071992;28;19904;-59
2023/03/21 01:50:25;;;;;;;;;;;;;;;;;;5072058;28;20322;-59
2023/03/21 01:52:51;;;;;;;;;;;;;;;;;;5071962;28;20317;-57
2023/03/21 01:55:17;;;;;;;;;;;;;;;;;;5071698;28;19955;-59
2023/03/21 01:57:43;;;;;;;;;;;;;;;;;;5072148;28;19913;-57
2023/03/21 02:00:11;;;;;;;;;;;;;;;;;;5053963;28;19920;-55
2023/03/21 02:02:37;;;;;;;;;;;;;;;;;;5070469;28;19915;-55
2023/03/21 02:05:03;;;;;;;;;;;;;;;;;;5071452;28;19905;-55
2023/03/21 02:07:30;;;;;;;;;;;;;;;;;;5071745;28;19950;-58
2023/03/21 02:09:56;;;;;;;;;;;;;;;;;;5071455;28;19930;-59
2023/03/21 02:12:22;;;;;;;;;;;;;;;;;;5053530;28;19908;-59
2023/03/21 02:14:48;;;;;;;;;;;;;;;;;;5071448;28;19947;-58
2023/03/21 02:17:13;;;;;;;;;;;;;;;;;;5071076;28;20264;-59
2023/03/21 02:19:40;;;;;;;;;;;;;;;;;;5071555;28;19958;-55
2023/03/21 02:22:05;;;;;;;;;;;;;;;;;;5071676;28;20331;-57
2023/03/21 02:24:31;;;;;;;;;;;;;;;;;;5071454;28;19905;-54
2023/03/21 02:26:57;;;;;;;;;;;;;;;;;;5070017;28;19905;-60
2023/03/21 02:29:23;;;;;;;;;;;;;;;;;;5053388;28;20288;-58
2023/03/21 02:31:49;;;;;;;;;;;;;;;;;;5071256;28;19904;-56
2023/03/21 02:34:15;;;;;;;;;;;;;;;;;;5071236;28;19905;-60
2023/03/21 02:36:41;;;;;;;;;;;;;;;;;;5070315;28;20324;-58
2023/03/21 02:39:07;;;;;;;;;;;;;;;;;;5071227;28;19957;-59
2023/03/21 02:41:33;;;;;;;;;;;;;;;;;;5053506;28;20387;-61
2023/03/21 02:43:59;;;;;;;;;;;;;;;;;;5071591;28;19904;-55
2023/03/21 02:46:25;;;;;;;;;;;;;;;;;;5071604;28;19908;-56
2023/03/21 02:48:51;;;;;;;;;;;;;;;;;;5072510;28;20283;-57
2023/03/21 02:51:17;;;;;;;;;;;;;;;;;;5075300;28;19904;-55
2023/03/21 02:53:43;;;;;;;;;;;;;;;;;;5075031;28;19905;-61
2023/03/21 02:56:09;;;;;;;;;;;;;;;;;;5074988;28;19959;-58
2023/03/21 02:58:35;;;;;;;;;;;;;;;;;;5065873;28;20346;-59
2023/03/21 03:01:01;;;;;;;;;;;;;;;;;;5056917;28;19954;-57
2023/03/21 03:03:27;;;;;;;;;;;;;;;;;;5074693;28;19926;-61
2023/03/21 03:05:53;;;;;;;;;;;;;;;;;;5074838;28;19905;-53
2023/03/21 03:08:19;;;;;;;;;;;;;;;;;;5074453;28;19904;-60
2023/03/21 03:10:45;;;;;;;;;;;;;;;;;;5073146;28;19943;-58
2023/03/21 03:13:11;;;;;;;;;;;;;;;;;;5072931;28;19905;-56
2023/03/21 03:15:37;;;;;;;;;;;;;;;;;;5074385;28;19904;-59
2023/03/21 03:18:03;;;;;;;;;;;;;;;;;;5073272;28;20253;-56
2023/03/21 03:20:29;;;;;;;;;;;;;;;;;;5073371;28;19913;-58
2023/03/21 03:22:55;;;;;;;;;;;;;;;;;;5074602;28;19977;-59
2023/03/21 03:25:21;;;;;;;;;;;;;;;;;;5074615;28;19908;-56
2023/03/21 03:27:47;;;;;;;;;;;;;;;;;;5056570;28;19954;-58
2023/03/21 03:30:13;;;;;;;;;;;;;;;;;;5074399;28;19908;-57
2023/03/21 03:32:43;;;;;;;;;;;;;;;;;;5074248;28;19911;-55
2023/03/21 03:35:10;;;;;;;;;;;;;;;;;;5073213;28;20393;-57
2023/03/21 03:37:36;;;;;;;;;;;;;;;;;;5074743;28;19915;-58
2023/03/21 03:40:04;;;;;;;;;;;;;;;;;;5072776;28;19912;-59
2023/03/21 03:42:30;;;;;;;;;;;;;;;;;;5074164;28;19914;-60
2023/03/21 03:44:56;;;;;;;;;;;;;;;;;;5073784;28;19944;-55
2023/03/21 03:47:22;;;;;;;;;;;;;;;;;;5072038;28;19904;-60
2023/03/21 03:49:48;;;;;;;;;;;;;;;;;;5073957;28;20288;-59
2023/03/21 03:52:14;;;;;;;;;;;;;;;;;;5073013;28;19904;-59
2023/03/21 03:54:40;;;;;;;;;;;;;;;;;;5072848;28;19909;-59
2023/03/21 03:57:05;;;;;;;;;;;;;;;;;;5072076;28;19962;-57
2023/03/21 03:59:31;;;;;;;;;;;;;;;;;;5073162;28;19912;-60
2023/03/21 04:01:57;;;;;;;;;;;;;;;;;;5072113;28;19911;-56
2023/03/21 04:04:27;;;;;;;;;;;;;;;;;;5071219;28;19904;-58
2023/03/21 04:06:53;;;;;;;;;;;;;;;;;;5071471;28;19904;-57
2023/03/21 04:09:19;;;;;;;;;;;;;;;;;;5071157;28;19904;-55
2023/03/21 04:11:45;;;;;;;;;;;;;;;;;;5071415;28;19995;-56
2023/03/21 04:14:11;;;;;;;;;;;;;;;;;;5072318;28;19904;-56
2023/03/21 04:16:37;;;;;;;;;;;;;;;;;;5072431;28;19908;-56
2023/03/21 04:19:03;;;;;;;;;;;;;;;;;;5072438;28;20364;-57
2023/03/21 04:21:29;;;;;;;;;;;;;;;;;;5071084;28;19904;-57
2023/03/21 04:23:55;;;;;;;;;;;;;;;;;;5071014;28;20357;-56
2023/03/21 04:26:21;;;;;;;;;;;;;;;;;;5071452;28;19905;-56
2023/03/21 04:28:47;;;;;;;;;;;;;;;;;;5072206;28;19904;-54
2023/03/21 04:31:13;;;;;;;;;;;;;;;;;;5070869;28;20336;-59
2023/03/21 04:33:39;;;;;;;;;;;;;;;;;;5071915;28;19987;-59
2023/03/21 04:36:05;;;;;;;;;;;;;;;;;;5071969;28;19967;-58
2023/03/21 04:38:32;;;;;;;;;;;;;;;;;;5032643;28;1089522;-54
2023/03/21 04:40:58;;;;;;;;;;;;;;;;;;5072937;28;19912;-58
2023/03/21 04:43:24;;;;;;;;;;;;;;;;;;5072522;28;19908;-56
2023/03/21 04:45:50;;;;;;;;;;;;;;;;;;5071434;28;19927;-54
2023/03/21 04:48:18;;;;;;;;;;;;;;;;;;5071484;28;19965;-59
2023/03/21 04:50:44;;;;;;;;;;;;;;;;;;5072727;28;20279;-54
2023/03/21 04:53:10;;;;;;;;;;;;;;;;;;5072432;28;19901;-57
2023/03/21 04:55:35;;;;;;;;;;;;;;;;;;5072426;28;19912;-56
2023/03/21 04:58:01;;;;;;;;;;;;;;;;;;5072454;28;19952;-61
2023/03/21 05:00:27;;;;;;;;;;;;;;;;;;5072435;28;19963;-59
2023/03/21 05:02:53;;;;;;;;;;;;;;;;;;5072330;28;19908;-54
2023/03/21 05:05:19;;;;;;;;;;;;;;;;;;5071003;28;20500;-54
2023/03/21 05:07:45;;;;;;;;;;;;;;;;;;5072339;28;19910;-57
2023/03/21 05:10:11;;;;;;;;;;;;;;;;;;5072481;28;19904;-57
2023/03/21 05:12:37;;;;;;;;;;;;;;;;;;5071407;28;19927;-58
2023/03/21 05:15:03;;;;;;;;;;;;;;;;;;5072014;28;19912;-59
2023/03/21 05:17:29;;;;;;;;;;;;;;;;;;5071154;28;19948;-58
2023/03/21 05:19:55;;;;;;;;;;;;;;;;;;5070888;28;19908;-58
2023/03/21 05:22:23;;;;;;;;;;;;;;;;;;5072270;28;20292;-55
2023/03/21 05:24:49;;;;;;;;;;;;;;;;;;5070678;28;19991;-56
2023/03/21 05:27:35;;;;;;;;;;;;;;;;;;5072062;28;19964;-57
2023/03/21 05:30:00;;;;;;;;;;;;;;;;;;5071763;28;19954;-57
2023/03/21 05:32:26;;;;;;;;;;;;;;;;;;5071809;28;19904;-54
2023/03/21 05:34:52;;;;;;;;;;;;;;;;;;5070403;28;20264;-56
2023/03/21 05:37:18;;;;;;;;;;;;;;;;;;5071865;28;19948;-59
2023/03/21 05:39:44;;;;;;;;;;;;;;;;;;5070449;28;20400;-59
2023/03/21 05:42:10;;;;;;;;;;;;;;;;;;5071705;28;19904;-56
2023/03/21 05:44:36;;;;;;;;;;;;;;;;;;5071547;28;19905;-55
2023/03/21 05:47:03;;;;;;;;;;;;;;;;;;5071834;28;19972;-57
2023/03/21 05:49:29;;;;;;;;;;;;;;;;;;5070372;28;20292;-60
2023/03/21 05:51:55;;;;;;;;;;;;;;;;;;5071574;28;19908;-57
2023/03/21 05:54:21;;;;;;;;;;;;;;;;;;5070738;28;19911;-55
2023/03/21 05:56:47;;;;;;;;;;;;;;;;;;5071658;28;20006;-57
2023/03/21 05:59:13;;;;;;;;;;;;;;;;;;5071981;28;19927;-61
2023/03/21 06:01:39;;;;;;;;;;;;;;;;;;5071494;28;19939;-58
2023/03/21 06:04:04;;;;;;;;;;;;;;;;;;5070213;28;19958;-61
2023/03/21 06:06:30;;;;;;;;;;;;;;;;;;5071635;28;19904;-58
2023/03/21 06:08:56;;;;;;;;;;;;;;;;;;5071374;28;19904;-59
2023/03/21 06:11:22;;;;;;;;;;;;;;;;;;5070276;28;19974;-60
2023/03/21 06:13:48;;;;;;;;;;;;;;;;;;5071492;28;20003;-59
2023/03/21 06:16:14;;;;;;;;;;;;;;;;;;5071244;28;19996;-57
2023/03/21 06:18:40;;;;;;;;;;;;;;;;;;5069959;28;19973;-59
2023/03/21 06:21:06;;;;;;;;;;;;;;;;;;5069485;28;19909;-56
2023/03/21 06:23:32;;;;;;;;;;;;;;;;;;5071437;28;19957;-56
2023/03/21 06:25:58;;;;;;;;;;;;;;;;;;5056611;28;19904;-55
2023/03/21 06:28:24;;;;;;;;;;;;;;;;;;5074579;28;19904;-58
2023/03/21 06:30:50;;;;;;;;;;;;;;;;;;5073118;28;19928;-59
2023/03/21 06:33:15;;;;;;;;;;;;;;;;;;5056264;28;20312;-55
2023/03/21 06:35:41;;;;;;;;;;;;;;;;;;5074863;28;19916;-57
2023/03/21 06:38:07;;;;;;;;;;;;;;;;;;5074225;28;20277;-57
2023/03/21 06:40:33;;;;;;;;;;;;;;;;;;5096454;22;19995;-63
2023/03/21 06:42:59;;;;;;;;;;;;;;;;;;5055526;28;19905;-64
2023/03/21 06:45:25;;;;;;;;;;;;;;;;;;5073031;28;19908;-65
2023/03/21 06:47:51;;;;;;;;;;;;;;;;;;5074050;28;19905;-64
2023/03/21 06:50:17;;;;;;;;;;;;;;;;;;5071890;28;19950;-64
2023/03/21 06:52:43;;;;;;;;;;;;;;;;;;5055502;28;19983;-67
2023/03/21 06:55:09;;;;;;;;;;;;;;;;;;5073224;28;19943;-65
2023/03/21 06:57:35;;;;;;;;;;;;;;;;;;5073324;28;19919;-64
2023/03/21 07:00:01;;;;;;;;;;;;;;;;;;5074130;28;20308;-66
2023/03/21 07:02:27;;;;;;;;;;;;;;;;;;5073287;28;19928;-65
2023/03/21 07:04:53;;;;;;;;;;;;;;;;;;5055564;28;20067;-66
2023/03/21 07:07:19;;;;;;;;;;;;;;;;;;5073587;28;19912;-68
2023/03/21 07:09:45;;;;;;;;;;;;;;;;;;5072986;28;19991;-65
2023/03/21 07:12:11;;;;;;;;;;;;;;;;;;5055244;28;20361;-67
2023/03/21 07:14:37;;;;;;;;;;;;;;;;;;5073335;28;20292;-68
2023/03/21 07:17:03;;;;;;;;;;;;;;;;;;5072875;28;19908;-64
2023/03/21 07:19:29;;;;;;;;;;;;;;;;;;5055342;28;19931;-66
2023/03/21 07:21:55;;;;;;;;;;;;;;;;;;5073148;28;19931;-66
2023/03/21 07:24:21;;;;;;;;;;;;;;;;;;5074320;28;20000;-65
2023/03/21 07:26:47;;;;;;;;;;;;;;;;;;5073334;28;19912;-66
2023/03/21 07:29:14;;;;;;;;;;;;;;;;;;5075469;28;19912;-67
2023/03/21 07:31:40;;;;;;;;;;;;;;;;;;5058126;28;19991;-66
2023/03/21 07:34:06;;;;;;;;;;;;;;;;;;5055328;28;19911;-66
2023/03/21 07:36:32;;;;;;;;;;;;;;;;;;5072063;28;20273;-66
2023/03/21 07:38:57;;;;;;;;;;;;;;;;;;5072675;28;20055;-66
2023/03/21 07:41:24;;;;;;;;;;;;;;;;;;5073096;28;19908;-67
2023/03/21 07:43:49;;;;;;;;;;;;;;;;;;5054355;28;19908;-66
2023/03/21 07:46:15;;;;;;;;;;;;;;;;;;5072711;28;20008;-67
2023/03/21 07:48:41;;;;;;;;;;;;;;;;;;5072916;28;19999;-66
2023/03/21 07:51:08;;;;;;;;;;;;;;;;;;5054644;28;19904;-67
2023/03/21 07:53:34;;;;;;;;;;;;;;;;;;5072381;28;19911;-64
2023/03/21 07:56:00;;;;;;;;;;;;;;;;;;5072134;28;19995;-66
2023/03/21 07:58:27;;;;;;;;;;;;;;;;;;5054380;28;19904;-65
2023/03/21 08:00:54;;;;;;;;;;;;;;;;;;5072117;28;20323;-67
2023/03/21 08:03:20;;;;;;;;;;;;;;;;;;5054382;28;19908;-66
2023/03/21 08:05:46;;;;;;;;;;;;;;;;;;5054379;28;19953;-66
2023/03/21 08:08:12;;;;;;;;;;;;;;;;;;5054302;28;20380;-65
2023/03/21 08:10:38;;;;;;;;;;;;;;;;;;5071811;28;19995;-67
2023/03/21 08:13:04;;;;;;;;;;;;;;;;;;5053861;28;19904;-66
2023/03/21 08:15:30;;;;;;;;;;;;;;;;;;5071929;28;19962;-66
2023/03/21 08:17:56;;;;;;;;;;;;;;;;;;5071975;28;19912;-67
2023/03/21 08:20:22;;;;;;;;;;;;;;;;;;5071903;28;20566;-65
2023/03/21 08:22:48;;;;;;;;;;;;;;;;;;5071819;28;19999;-67
2023/03/21 08:25:14;;;;;;;;;;;;;;;;;;5071572;28;20437;-67
2023/03/21 08:27:40;;;;;;;;;;;;;;;;;;5071788;28;20376;-66
2023/03/21 08:30:06;;;;;;;;;;;;;;;;;;5070006;28;19927;-66
2023/03/21 08:32:32;;;;;;;;;;;;;;;;;;5065570;28;19919;-67
2023/03/21 08:34:58;;;;;;;;;;;;;;;;;;5071392;28;19905;-65
2023/03/21 08:37:24;;;;;;;;;;;;;;;;;;5071514;28;19994;-67
2023/03/21 08:39:50;;;;;;;;;;;;;;;;;;5071368;28;19974;-66
2023/03/21 08:42:16;;;;;;;;;;;;;;;;;;5054217;28;19956;-65
2023/03/21 08:44:42;;;;;;;;;;;;;;;;;;5053086;28;19908;-66
2023/03/21 08:47:08;;;;;;;;;;;;;;;;;;5052853;28;19904;-65
2023/03/21 08:49:33;;;;;;;;;;;;;;;;;;5071096;28;20368;-67
2023/03/21 08:51:59;;;;;;;;;;;;;;;;;;5071104;28;20288;-65
2023/03/21 08:54:25;;;;;;;;;;;;;;;;;;5053133;28;19905;-64
2023/03/21 08:56:51;;;;;;;;;;;;;;;;;;5071542;28;19908;-66
2023/03/21 08:59:17;;;;;;;;;;;;;;;;;;5053559;28;20296;-66
2023/03/21 09:01:44;;;;;;;;;;;;;;;;;;5053112;28;19904;-67
2023/03/21 09:04:10;;;;;;;;;;;;;;;;;;5071033;28;19947;-66
2023/03/21 09:06:36;;;;;;;;;;;;;;;;;;5050605;28;19919;-61
2023/03/21 09:09:03;;;;;;;;;;;;;;;;;;5070570;28;20023;-61
2023/03/21 09:11:29;;;;;;;;;;;;;;;;;;5069440;28;19905;-60
2023/03/21 09:13:55;;;;;;;;;;;;;;;;;;5070531;28;20364;-61
2023/03/21 09:16:21;;;;;;;;;;;;;;;;;;5070637;28;19908;-61
2023/03/21 09:18:49;;;;;;;;;;;;;;;;;;5070639;28;20357;-60
2023/03/21 09:21:15;;;;;;;;;;;;;;;;;;5070703;28;20387;-59
2023/03/21 09:23:41;;;;;;;;;;;;;;;;;;5070763;28;20042;-61
2023/03/21 09:26:08;;;;;;;;;;;;;;;;;;5070645;28;19962;-61
2023/03/21 09:28:34;;;;;;;;;;;;;;;;;;5070869;28;19961;-61
2023/03/21 09:31:01;;;;;;;;;;;;;;;;;;5069190;28;19908;-60
2023/03/21 09:33:28;;;;;;;;;;;;;;;;;;5073785;28;19972;-59
2023/03/21 09:35:54;;;;;;;;;;;;;;;;;;5074420;28;19940;-61
2023/03/21 09:38:20;;;;;;;;;;;;;;;;;;5074387;28;19974;-61
2023/03/21 09:40:46;;;;;;;;;;;;;;;;;;5070860;28;20002;-63
2023/03/21 09:43:12;;;;;;;;;;;;;;;;;;5070552;28;20328;-60
2023/03/21 09:45:38;;;;;;;;;;;;;;;;;;5069950;28;19945;-59
2023/03/21 09:48:06;;;;;;;;;;;;;;;;;;5070017;28;19911;-60
2023/03/21 09:50:32;;;;;;;;;;;;;;;;;;5070930;28;20368;-60
2023/03/21 09:52:58;;;;;;;;;;;;;;;;;;5052032;28;19964;-61
2023/03/21 09:55:25;;;;;;;;;;;;;;;;;;5050343;28;19905;-61
2023/03/21 09:57:51;;;;;;;;;;;;;;;;;;5050612;28;19963;-61
2023/03/21 10:00:19;;;;;;;;;;;;;;;;;;5054467;28;19940;-60
2023/03/21 10:02:46;;;;;;;;;;;;;;;;;;5054949;28;20046;-61
2023/03/21 10:05:12;;;;;;;;;;;;;;;;;;5054505;28;19906;-60
2023/03/21 10:07:38;;;;;;;;;;;;;;;;;;5055061;28;20001;-60
2023/03/21 10:10:05;;;;;;;;;;;;;;;;;;5055285;28;19904;-59
2023/03/21 10:12:31;;;;;;;;;;;;;;;;;;5055097;28;19961;-61
2023/03/21 10:14:56;;;;;;;;;;;;;;;;;;5053498;28;19992;-59
2023/03/21 10:17:22;;;;;;;;;;;;;;;;;;5054557;28;20353;-59
2023/03/21 10:19:49;;;;;;;;;;;;;;;;;;5054777;28;19909;-62
2023/03/21 10:22:15;;;;;;;;;;;;;;;;;;5054519;28;19909;-61
2023/03/21 10:24:40;;;;;;;;;;;;;;;;;;5053602;28;19908;-61
2023/03/21 10:27:06;;;;;;;;;;;;;;;;;;5054231;28;20357;-61
2023/03/21 10:29:35;;;;;;;;;;;;;;;;;;5053906;28;19995;-63
2023/03/21 10:32:01;;;;;;;;;;;;;;;;;;5053763;28;19905;-61
2023/03/21 10:34:27;;;;;;;;;;;;;;;;;;5052402;28;20422;-62
2023/03/21 10:36:53;;;;;;;;;;;;;;;;;;5054238;28;19916;-59
2023/03/21 10:39:19;;;;;;;;;;;;;;;;;;5053832;28;19912;-60
2023/03/21 10:41:45;;;;;;;;;;;;;;;;;;5054255;28;19999;-58
2023/03/21 10:44:13;;;;;;;;;;;;;;;;;;5058805;28;20470;-61
2023/03/21 10:46:39;;;;;;;;;;;;;;;;;;5073604;28;20429;-63
2023/03/21 10:49:05;;;;;;;;;;;;;;;;;;5073757;28;19900;-57
2023/03/21 10:51:31;;;;;;;;;;;;;;;;;;5073507;28;19908;-59
2023/03/21 10:53:57;;;;;;;;;;;;;;;;;;5073991;28;19990;-60
2023/03/21 10:56:22;;;;;;;;;;;;;;;;;;5056415;28;19912;-62
2023/03/21 10:58:48;;;;;;;;;;;;;;;;;;5074170;28;19912;-62
2023/03/21 11:01:14;;;;;;;;;;;;;;;;;;5074205;28;19912;-60
2023/03/21 11:03:42;;;;;;;;;;;;;;;;;;5072717;28;20020;-63
2023/03/21 11:06:08;;;;;;;;;;;;;;;;;;5070485;28;19908;-62
2023/03/21 11:08:34;;;;;;;;;;;;;;;;;;5055230;28;19926;-62
2023/03/21 11:11:00;;;;;;;;;;;;;;;;;;5071905;28;19911;-62
2023/03/21 11:13:26;;;;;;;;;;;;;;;;;;5072645;28;20282;-60
2023/03/21 11:15:52;;;;;;;;;;;;;;;;;;5072856;28;19911;-62
2023/03/21 11:18:18;;;;;;;;;;;;;;;;;;5072873;28;19904;-58
2023/03/21 11:20:44;;;;;;;;;;;;;;;;;;5072963;28;19908;-60
2023/03/21 11:23:10;;;;;;;;;;;;;;;;;;5072090;28;19909;-63
2023/03/21 11:25:36;;;;;;;;;;;;;;;;;;5073023;28;19995;-60
2023/03/21 11:28:02;;;;;;;;;;;;;;;;;;5071709;28;19914;-60
2023/03/21 11:30:27;;;;;;;;;;;;;;;;;;5072950;28;19912;-61
2023/03/21 11:32:54;;;;;;;;;;;;;;;;;;5073019;28;19918;-59
2023/03/21 11:35:20;;;;;;;;;;;;;;;;;;5072716;28;19904;-60
2023/03/21 11:37:46;;;;;;;;;;;;;;;;;;5073040;28;19908;-64
2023/03/21 11:40:12;;;;;;;;;;;;;;;;;;5073169;28;20439;-60
2023/03/21 11:42:38;;;;;;;;;;;;;;;;;;5074405;28;19955;-62
2023/03/21 11:45:04;;;;;;;;;;;;;;;;;;5073325;28;20003;-60
2023/03/21 11:47:30;;;;;;;;;;;;;;;;;;5072444;28;19993;-62
2023/03/21 11:49:56;;;;;;;;;;;;;;;;;;5072020;28;19924;-62
2023/03/21 11:52:22;;;;;;;;;;;;;;;;;;5068073;28;20353;-62
2023/03/21 11:54:48;;;;;;;;;;;;;;;;;;5062061;28;19965;-62
2023/03/21 11:57:14;;;;;;;;;;;;;;;;;;5060811;28;19940;-62
2023/03/21 11:59:40;;;;;;;;;;;;;;;;;;5060602;28;20450;-60
2023/03/21 12:02:06;;;;;;;;;;;;;;;;;;5060130;28;19950;-62
2023/03/21 12:04:32;;;;;;;;;;;;;;;;;;5044447;28;20133;-63
2023/03/21 12:06:58;;;;;;;;;;;;;;;;;;5063796;28;19958;-60
2023/03/21 12:09:24;;;;;;;;;;;;;;;;;;5061308;28;19904;-61
2023/03/21 12:11:50;;;;;;;;;;;;;;;;;;5062609;28;20285;-62
2023/03/21 12:14:16;;;;;;;;;;;;;;;;;;5059450;28;20369;-64
2023/03/21 12:16:42;;;;;;;;;;;;;;;;;;5069463;28;19966;-62
2023/03/21 12:19:08;;;;;;;;;;;;;;;;;;5072212;28;19908;-61
2023/03/21 12:21:34;;;;;;;;;;;;;;;;;;5071620;28;19909;-62
2023/03/21 12:24:00;;;;;;;;;;;;;;;;;;5072160;28;20296;-61
2023/03/21 12:26:26;;;;;;;;;;;;;;;;;;5070439;28;19920;-62
2023/03/21 12:28:52;;;;;;;;;;;;;;;;;;5050582;28;19915;-62
2023/03/21 12:31:19;;;;;;;;;;;;;;;;;;5069098;28;19905;-59
2023/03/21 12:33:45;;;;;;;;;;;;;;;;;;5071539;28;19958;-63
2023/03/21 12:36:11;;;;;;;;;;;;;;;;;;5071810;28;19912;-62
2023/03/21 12:38:37;;;;;;;;;;;;;;;;;;5071458;28;19905;-62
2023/03/21 12:41:03;;;;;;;;;;;;;;;;;;5078659;22;20007;-63
2023/03/21 12:43:29;;;;;;;;;;;;;;;;;;5034665;28;19916;-61
2023/03/21 12:45:55;;;;;;;;;;;;;;;;;;5031656;28;19913;-62
2023/03/21 12:48:21;;;;;;;;;;;;;;;;;;4700567;28;10000037;-61
2023/03/21 12:50:48;;;;;;;;;;;;;;;;;;5049841;28;19904;-64
2023/03/21 12:53:15;;;;;;;;;;;;;;;;;;5046068;28;20299;-66
2023/03/21 12:55:40;;;;;;;;;;;;;;;;;;5049911;28;19940;-63
2023/03/21 12:58:06;;;;;;;;;;;;;;;;;;5050029;28;20356;-67
2023/03/21 13:00:32;;;;;;;;;;;;;;;;;;5032049;28;19948;-63
2023/03/21 13:02:58;;;;;;;;;;;;;;;;;;5048155;28;19912;-63
2023/03/21 13:05:26;;;;;;;;;;;;;;;;;;5043350;28;19920;-64
2023/03/21 13:07:52;;;;;;;;;;;;;;;;;;5038737;28;19909;-63
2023/03/21 13:10:21;;;;;;;;;;;;;;;;;;5030476;28;19909;-62
2023/03/21 13:12:48;;;;;;;;;;;;;;;;;;5064461;28;19934;-63
2023/03/21 13:15:14;;;;;;;;;;;;;;;;;;5051083;28;19962;-65
2023/03/21 13:17:40;;;;;;;;;;;;;;;;;;5069521;28;19964;-65
2023/03/21 13:20:06;;;;;;;;;;;;;;;;;;5069480;28;19908;-63
2023/03/21 13:22:32;;;;;;;;;;;;;;;;;;5038709;28;19990;-61
2023/03/21 13:24:58;;;;;;;;;;;;;;;;;;5031098;28;20088;-65
2023/03/21 13:27:24;;;;;;;;;;;;;;;;;;5031516;28;20235;-64
2023/03/21 13:29:50;;;;;;;;;;;;;;;;;;5031375;28;19912;-61
2023/03/21 13:32:16;;;;;;;;;;;;;;;;;;5031330;28;19908;-64
2023/03/21 13:34:42;;;;;;;;;;;;;;;;;;5030490;28;19909;-64
2023/03/21 13:37:08;;;;;;;;;;;;;;;;;;5048749;28;19944;-64
2023/03/21 13:39:35;;;;;;;;;;;;;;;;;;5049339;28;19909;-62
2023/03/21 13:42:01;;;;;;;;;;;;;;;;;;5049267;28;19995;-63
2023/03/21 13:44:27;;;;;;;;;;;;;;;;;;5048603;28;19996;-62
2023/03/21 13:46:53;;;;;;;;;;;;;;;;;;5048552;28;19912;-62
2023/03/21 13:49:19;;;;;;;;;;;;;;;;;;5048674;28;20348;-63
2023/03/21 13:51:45;;;;;;;;;;;;;;;;;;5048810;28;19998;-64
2023/03/21 13:54:11;;;;;;;;;;;;;;;;;;5030570;28;19988;-61
2023/03/21 13:56:37;;;;;;;;;;;;;;;;;;5048580;28;20016;-63
2023/03/21 13:59:02;;;;;;;;;;;;;;;;;;5048368;28;19905;-61
2023/03/21 14:01:28;;;;;;;;;;;;;;;;;;5048720;28;19912;-64
2023/03/21 14:03:55;;;;;;;;;;;;;;;;;;5048566;28;19909;-61
2023/03/21 14:06:21;;;;;;;;;;;;;;;;;;5048607;28;19905;-64
2023/03/21 14:08:46;;;;;;;;;;;;;;;;;;5030863;28;19916;-63
2023/03/21 14:11:13;;;;;;;;;;;;;;;;;;5048667;28;20404;-62
2023/03/21 14:13:39;;;;;;;;;;;;;;;;;;5048399;28;19999;-62
2023/03/21 14:16:06;;;;;;;;;;;;;;;;;;5031088;28;20011;-65
2023/03/21 14:18:32;;;;;;;;;;;;;;;;;;5049000;28;19905;-64
2023/03/21 14:20:59;;;;;;;;;;;;;;;;;;5048486;28;19904;-64
2023/03/21 14:23:25;;;;;;;;;;;;;;;;;;5031860;28;19913;-62
2023/03/21 14:25:51;;;;;;;;;;;;;;;;;;5011123;28;19920;-64
2023/03/21 14:28:17;;;;;;;;;;;;;;;;;;5010479;28;20408;-64
2023/03/21 14:30:43;;;;;;;;;;;;;;;;;;5028415;28;19916;-63
2023/03/21 14:33:09;;;;;;;;;;;;;;;;;;5028187;28;19905;-63
2023/03/21 14:35:35;;;;;;;;;;;;;;;;;;5028782;28;19943;-64
2023/03/21 14:38:01;;;;;;;;;;;;;;;;;;5028696;28;19909;-63
2023/03/21 14:40:26;;;;;;;;;;;;;;;;;;5010624;28;19917;-60
2023/03/21 14:42:52;;;;;;;;;;;;;;;;;;5030047;28;20004;-67
2023/03/21 14:45:18;;;;;;;;;;;;;;;;;;5031621;28;19905;-63
2023/03/21 14:47:45;;;;;;;;;;;;;;;;;;5034973;28;20026;-61
2023/03/21 14:50:10;;;;;;;;;;;;;;;;;;5050897;28;19904;-59
2023/03/21 14:52:39;;;;;;;;;;;;;;;;;;5054568;28;20257;-63
2023/03/21 14:55:05;;;;;;;;;;;;;;;;;;5036330;28;19904;-63
2023/03/21 14:57:31;;;;;;;;;;;;;;;;;;5054293;28;19908;-61
2023/03/21 14:59:57;;;;;;;;;;;;;;;;;;5054513;28;19905;-62
2023/03/21 15:02:22;;;;;;;;;;;;;;;;;;5054601;28;19970;-63
2023/03/21 15:04:48;;;;;;;;;;;;;;;;;;5054017;28;19904;-63
2023/03/21 15:07:14;;;;;;;;;;;;;;;;;;4705589;28;10000034;-64
2023/03/21 15:09:40;;;;;;;;;;;;;;;;;;5051555;28;19904;-62
2023/03/21 15:12:06;;;;;;;;;;;;;;;;;;5051837;28;20262;-63
2023/03/21 15:14:32;;;;;;;;;;;;;;;;;;5033714;28;19948;-60
2023/03/21 15:16:58;;;;;;;;;;;;;;;;;;5051792;28;19992;-64
2023/03/21 15:19:25;;;;;;;;;;;;;;;;;;5051807;28;19915;-65
2023/03/21 15:21:51;;;;;;;;;;;;;;;;;;5033546;28;19954;-61
2023/03/21 15:24:16;;;;;;;;;;;;;;;;;;5051497;28;19943;-62
2023/03/21 15:26:42;;;;;;;;;;;;;;;;;;5033390;28;19908;-64
2023/03/21 15:29:08;;;;;;;;;;;;;;;;;;5051352;28;19912;-64
2023/03/21 15:31:34;;;;;;;;;;;;;;;;;;5051119;28;20408;-63
2023/03/21 15:34:00;;;;;;;;;;;;;;;;;;5050966;28;20581;-65
2023/03/21 15:36:26;;;;;;;;;;;;;;;;;;5049122;28;19960;-64
2023/03/21 15:38:52;;;;;;;;;;;;;;;;;;5050572;28;19909;-62
2023/03/21 15:41:18;;;;;;;;;;;;;;;;;;5050610;28;19935;-63
2023/03/21 15:43:47;;;;;;;;;;;;;;;;;;5051373;28;19951;-65
2023/03/21 15:46:13;;;;;;;;;;;;;;;;;;5032123;28;20360;-63
2023/03/21 15:48:39;;;;;;;;;;;;;;;;;;5050957;28;19921;-64
2023/03/21 15:51:05;;;;;;;;;;;;;;;;;;5051057;28;19916;-64
2023/03/21 15:53:31;;;;;;;;;;;;;;;;;;5050692;28;20569;-64
2023/03/21 15:56:00;;;;;;;;;;;;;;;;;;5050393;28;19905;-63
2023/03/21 15:58:26;;;;;;;;;;;;;;;;;;5050288;28;20368;-63
2023/03/21 16:00:52;;;;;;;;;;;;;;;;;;5048317;28;19927;-63
2023/03/21 16:03:18;;;;;;;;;;;;;;;;;;5051220;28;19992;-61
2023/03/21 16:05:44;;;;;;;;;;;;;;;;;;5051111;28;20004;-63
2023/03/21 16:08:10;;;;;;;;;;;;;;;;;;5051290;28;19908;-63
2023/03/21 16:10:36;;;;;;;;;;;;;;;;;;5045757;28;19912;-64
2023/03/21 16:13:02;;;;;;;;;;;;;;;;;;5048843;28;20007;-61
2023/03/21 16:15:28;;;;;;;;;;;;;;;;;;5045935;28;19909;-63
2023/03/21 16:17:54;;;;;;;;;;;;;;;;;;5032232;28;21163;-63
2023/03/21 16:20:20;;;;;;;;;;;;;;;;;;5041879;28;19924;-62
2023/03/21 16:22:46;;;;;;;;;;;;;;;;;;5052349;28;20254;-60
2023/03/21 16:25:12;;;;;;;;;;;;;;;;;;5052207;28;19905;-61
2023/03/21 16:27:38;;;;;;;;;;;;;;;;;;5051708;28;19915;-63
2023/03/21 16:30:04;;;;;;;;;;;;;;;;;;5032822;28;19936;-62
2023/03/21 16:32:30;;;;;;;;;;;;;;;;;;5050382;28;19912;-64
2023/03/21 16:34:56;;;;;;;;;;;;;;;;;;5032850;28;20353;-64
2023/03/21 16:37:22;;;;;;;;;;;;;;;;;;5050044;28;19963;-65